Oxford Mills, Iowa
Current Conditions -  °F | °C
As of 8:55 AM on Saturday 20 Dec 2014 (Local Time) from KMXO Reporting Station
Haze Haze  
Wind Chill: 21°   Ceiling: 1600
Heat Index: 28°   Visibility: 6mi
Dew Point: 28°   Wind: 7mph
Humidity: 100%   Direction: 130°SE
Pressure: 30.22"   Gusts: NA
Location:  41.9902°N, 90.9567°W
Report Text: KMXO 201455Z AUTO 13006KT 6SM BR OVC016 M02/M02 A3022 RMK AO2
Loading
Personal Weather Stations






























Interactive Weather Map New forecast layout! Learn more

10-Day Weather Forecast

Advertisements
Track Severe Weather on mobile